Hoxeyville, Michigan
Current Conditions -  °F | °C
As of 5:35 AM on Thursday 18 Dec 2014 (Local Time) from KCAD Reporting Station
Overcast Overcast  
Wind Chill: -8°   Ceiling: 1000
Heat Index: -3°   Visibility: 10mi
Dew Point: -5°   Wind: 7mph
Humidity: 90%   Direction: 340°NNW
Pressure: 30.13"   Gusts: NA
Location:  44.2433°N, 85.5328°W
Report Text: KCAD 181035Z AUTO 34006KT 10SM OVC010 M03/M05 A3013 RMK AO2 T10331048
Loading
Personal Weather Stations






























Interactive Weather Map New forecast layout! Learn more

10-Day Weather Forecast

Advertisements
Track Severe Weather on mobile